sensor_id;sensor_type;location;lat;lon;timestamp;pressure;altitude;pressure_sealevel;temperature;humidity
6132;BME280;3097;42.692;23.278;2023-02-02T00:00:58;95086.75;;;6.35;59.54
6132;BME280;3097;42.692;23.278;2023-02-02T00:03:23;95110.47;;;6.50;59.84
6132;BME280;3097;42.692;23.278;2023-02-02T00:05:52;95112.66;;;6.53;59.64
6132;BME280;3097;42.692;23.278;2023-02-02T00:08:19;95099.03;;;6.46;59.68
6132;BME280;3097;42.692;23.278;2023-02-02T00:10:46;95097.00;;;6.35;60.54
6132;BME280;3097;42.692;23.278;2023-02-02T00:13:12;95102.47;;;6.32;60.64
6132;BME280;3097;42.692;23.278;2023-02-02T00:15:38;95090.28;;;6.34;60.63
6132;BME280;3097;42.692;23.278;2023-02-02T00:18:04;95105.28;;;6.37;60.54
6132;BME280;3097;42.692;23.278;2023-02-02T00:20:30;95095.97;;;6.30;60.90
6132;BME280;3097;42.692;23.278;2023-02-02T00:22:59;95104.47;;;6.30;60.87
6132;BME280;3097;42.692;23.278;2023-02-02T00:25:24;95102.13;;;6.35;60.97
6132;BME280;3097;42.692;23.278;2023-02-02T00:27:50;95103.09;;;6.34;60.41
6132;BME280;3097;42.692;23.278;2023-02-02T00:30:15;95111.94;;;6.32;60.61
6132;BME280;3097;42.692;23.278;2023-02-02T00:32:41;95106.19;;;6.23;60.54
6132;BME280;3097;42.692;23.278;2023-02-02T00:35:07;95111.69;;;6.20;60.60
6132;BME280;3097;42.692;23.278;2023-02-02T00:37:33;95113.63;;;6.18;60.48
6132;BME280;3097;42.692;23.278;2023-02-02T00:39:59;95112.84;;;6.17;61.12
6132;BME280;3097;42.692;23.278;2023-02-02T00:42:24;95118.53;;;6.13;61.74
6132;BME280;3097;42.692;23.278;2023-02-02T00:44:50;95108.28;;;6.13;61.28
6132;BME280;3097;42.692;23.278;2023-02-02T00:47:33;95116.16;;;6.11;61.55
6132;BME280;3097;42.692;23.278;2023-02-02T00:50:00;95118.16;;;6.16;61.73
6132;BME280;3097;42.692;23.278;2023-02-02T00:52:25;95115.53;;;6.09;62.63
6132;BME280;3097;42.692;23.278;2023-02-02T00:54:51;95123.16;;;6.03;63.39
6132;BME280;3097;42.692;23.278;2023-02-02T00:57:16;95107.13;;;5.88;63.82
6132;BME280;3097;42.692;23.278;2023-02-02T00:59:43;95109.19;;;5.77;64.67
6132;BME280;3097;42.692;23.278;2023-02-02T01:02:09;95109.38;;;5.76;64.94
6132;BME280;3097;42.692;23.278;2023-02-02T01:04:35;95085.13;;;5.72;65.45
6132;BME280;3097;42.692;23.278;2023-02-02T01:07:01;95089.47;;;5.71;65.54
6132;BME280;3097;42.692;23.278;2023-02-02T01:09:26;95076.44;;;5.66;65.56
6132;BME280;3097;42.692;23.278;2023-02-02T01:11:51;95087.94;;;5.77;65.74
6132;BME280;3097;42.692;23.278;2023-02-02T01:14:17;95048.13;;;5.68;65.26
6132;BME280;3097;42.692;23.278;2023-02-02T01:16:42;95078.00;;;5.89;65.63
6132;BME280;3097;42.692;23.278;2023-02-02T01:19:08;95075.81;;;5.86;65.35
6132;BME280;3097;42.692;23.278;2023-02-02T01:21:33;95043.44;;;5.71;65.13
6132;BME280;3097;42.692;23.278;2023-02-02T01:23:59;95071.31;;;5.88;65.10
6132;BME280;3097;42.692;23.278;2023-02-02T01:26:24;95072.03;;;5.81;65.03
6132;BME280;3097;42.692;23.278;2023-02-02T01:28:50;95072.03;;;5.81;65.13
6132;BME280;3097;42.692;23.278;2023-02-02T01:31:17;95069.13;;;5.84;64.85
6132;BME280;3097;42.692;23.278;2023-02-02T01:33:44;95061.75;;;5.75;64.70
6132;BME280;3097;42.692;23.278;2023-02-02T01:36:15;95076.34;;;5.81;64.67
6132;BME280;3097;42.692;23.278;2023-02-02T01:38:41;95077.75;;;5.83;64.47
6132;BME280;3097;42.692;23.278;2023-02-02T01:41:10;95070.59;;;5.72;64.41
6132;BME280;3097;42.692;23.278;2023-02-02T01:46:16;95068.16;;;5.64;64.75
6132;BME280;3097;42.692;23.278;2023-02-02T01:48:45;95049.69;;;5.62;64.41
6132;BME280;3097;42.692;23.278;2023-02-02T01:51:15;95039.44;;;5.62;64.51
6132;BME280;3097;42.692;23.278;2023-02-02T01:53:43;95060.41;;;5.79;64.35
6132;BME280;3097;42.692;23.278;2023-02-02T01:56:11;95056.78;;;5.67;64.42
6132;BME280;3097;42.692;23.278;2023-02-02T01:58:40;95054.41;;;5.65;64.51
6132;BME280;3097;42.692;23.278;2023-02-02T02:01:06;95054.78;;;5.62;64.57
6132;BME280;3097;42.692;23.278;2023-02-02T02:03:33;95046.88;;;5.57;64.63
6132;BME280;3097;42.692;23.278;2023-02-02T02:06:06;95044.94;;;5.59;64.86
6132;BME280;3097;42.692;23.278;2023-02-02T02:08:37;95047.31;;;5.61;64.94
6132;BME280;3097;42.692;23.278;2023-02-02T02:11:05;95053.22;;;5.61;64.61
6132;BME280;3097;42.692;23.278;2023-02-02T02:13:33;95039.78;;;5.53;64.78
6132;BME280;3097;42.692;23.278;2023-02-02T02:21:42;95054.34;;;5.59;65.52
6132;BME280;3097;42.692;23.278;2023-02-02T02:30:19;95056.25;;;5.50;66.15
6132;BME280;3097;42.692;23.278;2023-02-02T02:35:37;95046.88;;;5.57;65.92
6132;BME280;3097;42.692;23.278;2023-02-02T02:38:28;95042.50;;;5.51;66.07
6132;BME280;3097;42.692;23.278;2023-02-02T02:41:07;95032.41;;;5.43;65.88
6132;BME280;3097;42.692;23.278;2023-02-02T02:43:40;95054.31;;;5.52;66.09
6132;BME280;3097;42.692;23.278;2023-02-02T02:46:08;95061.75;;;5.47;66.23
6132;BME280;3097;42.692;23.278;2023-02-02T02:48:34;95049.16;;;5.45;66.29
6132;BME280;3097;42.692;23.278;2023-02-02T02:51:08;95046.69;;;5.31;67.07
6132;BME280;3097;42.692;23.278;2023-02-02T02:53:52;95051.69;;;5.18;67.38
6132;BME280;3097;42.692;23.278;2023-02-02T02:56:24;95055.56;;;5.14;67.46
6132;BME280;3097;42.692;23.278;2023-02-02T02:59:03;95050.69;;;4.97;68.17
6132;BME280;3097;42.692;23.278;2023-02-02T03:01:36;95017.00;;;4.66;68.87
6132;BME280;3097;42.692;23.278;2023-02-02T03:04:19;95048.41;;;4.66;69.09
6132;BME280;3097;42.692;23.278;2023-02-02T03:06:51;95044.19;;;4.59;69.58
6132;BME280;3097;42.692;23.278;2023-02-02T03:09:24;95028.13;;;4.44;70.08
6132;BME280;3097;42.692;23.278;2023-02-02T03:11:54;95045.03;;;4.45;70.41
6132;BME280;3097;42.692;23.278;2023-02-02T03:14:20;95017.28;;;4.20;70.88
6132;BME280;3097;42.692;23.278;2023-02-02T03:16:46;95026.88;;;4.18;71.18
6132;BME280;3097;42.692;23.278;2023-02-02T03:19:11;95028.59;;;4.33;70.99
6132;BME280;3097;42.692;23.278;2023-02-02T03:21:37;95034.69;;;4.32;71.30
6132;BME280;3097;42.692;23.278;2023-02-02T03:24:03;95037.31;;;4.23;71.94
6132;BME280;3097;42.692;23.278;2023-02-02T03:26:28;95009.81;;;4.04;72.02
6132;BME280;3097;42.692;23.278;2023-02-02T03:28:55;95030.22;;;4.19;72.22
6132;BME280;3097;42.692;23.278;2023-02-02T03:31:21;95042.34;;;4.17;72.02
6132;BME280;3097;42.692;23.278;2023-02-02T03:33:47;95042.66;;;4.28;71.48
6132;BME280;3097;42.692;23.278;2023-02-02T03:36:12;95040.84;;;4.22;71.59
6132;BME280;3097;42.692;23.278;2023-02-02T03:38:37;95035.31;;;4.19;71.66
6132;BME280;3097;42.692;23.278;2023-02-02T03:41:04;95028.56;;;4.11;71.46
6132;BME280;3097;42.692;23.278;2023-02-02T03:43:29;95041.38;;;4.18;71.43
6132;BME280;3097;42.692;23.278;2023-02-02T03:45:59;95009.75;;;3.98;71.68
6132;BME280;3097;42.692;23.278;2023-02-02T03:48:25;95018.78;;;4.00;71.76
6132;BME280;3097;42.692;23.278;2023-02-02T03:50:52;95021.25;;;4.08;72.02
6132;BME280;3097;42.692;23.278;2023-02-02T03:53:17;95044.56;;;4.05;71.87
6132;BME280;3097;42.692;23.278;2023-02-02T03:55:42;95044.38;;;4.07;71.71
6132;BME280;3097;42.692;23.278;2023-02-02T03:58:08;95048.97;;;4.11;71.87
6132;BME280;3097;42.692;23.278;2023-02-02T04:00:33;95007.09;;;3.91;71.32
6132;BME280;3097;42.692;23.278;2023-02-02T04:02:59;95048.97;;;4.11;71.92
6132;BME280;3097;42.692;23.278;2023-02-02T04:05:24;95058.38;;;4.11;71.88
6132;BME280;3097;42.692;23.278;2023-02-02T04:07:49;95032.06;;;3.81;72.78
6132;BME280;3097;42.692;23.278;2023-02-02T04:10:16;95056.16;;;3.93;72.86
6132;BME280;3097;42.692;23.278;2023-02-02T04:12:42;95047.00;;;3.99;72.77
6132;BME280;3097;42.692;23.278;2023-02-02T04:15:07;95055.19;;;3.79;73.40
6132;BME280;3097;42.692;23.278;2023-02-02T04:17:33;95054.63;;;3.69;73.83
6132;BME280;3097;42.692;23.278;2023-02-02T04:20:00;95047.44;;;3.58;74.20
6132;BME280;3097;42.692;23.278;2023-02-02T04:22:25;95069.94;;;3.69;74.15
6132;BME280;3097;42.692;23.278;2023-02-02T04:24:51;95027.09;;;3.35;74.41
6132;BME280;3097;42.692;23.278;2023-02-02T04:27:16;95027.72;;;3.37;73.97
6132;BME280;3097;42.692;23.278;2023-02-02T04:29:42;95064.91;;;3.61;74.02
6132;BME280;3097;42.692;23.278;2023-02-02T04:32:07;95066.41;;;3.56;74.16
6132;BME280;3097;42.692;23.278;2023-02-02T04:34:32;95028.38;;;3.31;74.74
6132;BME280;3097;42.692;23.278;2023-02-02T04:36:58;95049.25;;;3.49;74.44
6132;BME280;3097;42.692;23.278;2023-02-02T04:39:23;95043.84;;;3.53;74.43
6132;BME280;3097;42.692;23.278;2023-02-02T04:41:49;95053.31;;;3.59;73.98
6132;BME280;3097;42.692;23.278;2023-02-02T04:44:15;95063.84;;;3.56;74.06
6132;BME280;3097;42.692;23.278;2023-02-02T04:46:43;95041.91;;;3.32;74.29
6132;BME280;3097;42.692;23.278;2023-02-02T04:49:10;95014.72;;;3.09;74.39
6132;BME280;3097;42.692;23.278;2023-02-02T04:51:37;95063.38;;;3.37;73.87
6132;BME280;3097;42.692;23.278;2023-02-02T04:54:03;95061.84;;;3.51;72.83
6132;BME280;3097;42.692;23.278;2023-02-02T04:56:29;95066.22;;;3.57;71.56
6132;BME280;3097;42.692;23.278;2023-02-02T04:58:54;95055.25;;;3.57;71.70
6132;BME280;3097;42.692;23.278;2023-02-02T05:01:23;95074.44;;;3.82;71.06
6132;BME280;3097;42.692;23.278;2023-02-02T05:03:49;95059.34;;;3.95;70.27
6132;BME280;3097;42.692;23.278;2023-02-02T05:06:15;95078.84;;;4.03;70.07
6132;BME280;3097;42.692;23.278;2023-02-02T05:08:42;95078.16;;;4.09;69.98
6132;BME280;3097;42.692;23.278;2023-02-02T05:11:09;95065.56;;;4.07;70.22
6132;BME280;3097;42.692;23.278;2023-02-02T05:13:35;95072.97;;;4.02;71.02
6132;BME280;3097;42.692;23.278;2023-02-02T05:16:00;95082.34;;;3.87;71.93
6132;BME280;3097;42.692;23.278;2023-02-02T05:18:26;95055.06;;;3.58;72.47
6132;BME280;3097;42.692;23.278;2023-02-02T05:20:51;95029.25;;;3.24;73.44
6132;BME280;3097;42.692;23.278;2023-02-02T05:23:18;95037.97;;;3.29;73.97
6132;BME280;3097;42.692;23.278;2023-02-02T05:25:43;95046.03;;;3.18;74.12
6132;BME280;3097;42.692;23.278;2023-02-02T05:28:09;95042.69;;;3.18;74.49
6132;BME280;3097;42.692;23.278;2023-02-02T05:30:38;95056.56;;;3.15;74.13
6132;BME280;3097;42.692;23.278;2023-02-02T05:33:03;95068.94;;;3.18;74.01
6132;BME280;3097;42.692;23.278;2023-02-02T05:35:28;95063.16;;;3.24;73.21
6132;BME280;3097;42.692;23.278;2023-02-02T05:37:54;95064.69;;;3.33;72.69
6132;BME280;3097;42.692;23.278;2023-02-02T05:40:19;95054.75;;;3.38;71.22
6132;BME280;3097;42.692;23.278;2023-02-02T05:42:47;95076.88;;;3.61;70.70
6132;BME280;3097;42.692;23.278;2023-02-02T05:45:13;95046.19;;;3.54;70.41
6132;BME280;3097;42.692;23.278;2023-02-02T05:47:39;95058.94;;;3.69;70.09
6132;BME280;3097;42.692;23.278;2023-02-02T05:50:04;95066.19;;;3.80;70.18
6132;BME280;3097;42.692;23.278;2023-02-02T05:52:32;95071.91;;;3.97;69.06
6132;BME280;3097;42.692;23.278;2023-02-02T05:54:59;95081.50;;;4.09;68.63
6132;BME280;3097;42.692;23.278;2023-02-02T05:57:24;95076.84;;;4.27;67.96
6132;BME280;3097;42.692;23.278;2023-02-02T05:59:49;95084.19;;;4.37;67.53
6132;BME280;3097;42.692;23.278;2023-02-02T06:02:15;95071.72;;;4.42;67.30
6132;BME280;3097;42.692;23.278;2023-02-02T06:04:40;95087.19;;;4.55;67.00
6132;BME280;3097;42.692;23.278;2023-02-02T06:07:06;95089.47;;;4.65;66.96
6132;BME280;3097;42.692;23.278;2023-02-02T06:09:31;95087.69;;;4.65;67.65
6132;BME280;3097;42.692;23.278;2023-02-02T06:11:56;95092.28;;;4.55;68.46
6132;BME280;3097;42.692;23.278;2023-02-02T06:14:22;95089.22;;;4.45;68.92
6132;BME280;3097;42.692;23.278;2023-02-02T06:16:47;95084.47;;;4.42;69.03
6132;BME280;3097;42.692;23.278;2023-02-02T06:19:13;95080.53;;;4.25;72.49
6132;BME280;3097;42.692;23.278;2023-02-02T06:21:38;95085.38;;;4.20;73.55
6132;BME280;3097;42.692;23.278;2023-02-02T06:24:04;95099.97;;;4.11;72.41
6132;BME280;3097;42.692;23.278;2023-02-02T06:26:29;95104.38;;;4.03;71.66
6132;BME280;3097;42.692;23.278;2023-02-02T06:28:55;95094.25;;;3.95;71.77
6132;BME280;3097;42.692;23.278;2023-02-02T06:31:20;95105.78;;;3.91;73.03
6132;BME280;3097;42.692;23.278;2023-02-02T06:33:56;95102.13;;;3.85;72.61
6132;BME280;3097;42.692;23.278;2023-02-02T06:36:23;95109.88;;;3.92;71.87
6132;BME280;3097;42.692;23.278;2023-02-02T06:38:50;95098.88;;;3.91;72.74
6132;BME280;3097;42.692;23.278;2023-02-02T06:41:17;95104.91;;;3.98;73.38
6132;BME280;3097;42.692;23.278;2023-02-02T06:43:42;95114.66;;;4.09;72.57
6132;BME280;3097;42.692;23.278;2023-02-02T06:46:08;95108.84;;;4.15;72.63
6132;BME280;3097;42.692;23.278;2023-02-02T06:48:33;95106.75;;;4.34;72.64
6132;BME280;3097;42.692;23.278;2023-02-02T06:50:59;95070.25;;;4.18;71.23
6132;BME280;3097;42.692;23.278;2023-02-02T06:53:25;95099.59;;;4.44;69.38
6132;BME280;3097;42.692;23.278;2023-02-02T06:55:52;95116.69;;;4.58;68.91
6132;BME280;3097;42.692;23.278;2023-02-02T06:58:18;95124.59;;;4.63;69.76
6132;BME280;3097;42.692;23.278;2023-02-02T07:00:44;95117.00;;;4.70;67.74
6132;BME280;3097;42.692;23.278;2023-02-02T07:03:09;95117.69;;;4.78;68.14
6132;BME280;3097;42.692;23.278;2023-02-02T07:05:34;95123.19;;;4.96;68.80
6132;BME280;3097;42.692;23.278;2023-02-02T07:08:00;95129.03;;;5.12;69.39
6132;BME280;3097;42.692;23.278;2023-02-02T07:10:25;95113.59;;;5.20;67.36
6132;BME280;3097;42.692;23.278;2023-02-02T07:12:53;95127.91;;;5.35;67.49
6132;BME280;3097;42.692;23.278;2023-02-02T07:15:18;95097.78;;;5.31;66.32
6132;BME280;3097;42.692;23.278;2023-02-02T07:17:44;95076.84;;;5.21;65.41
6132;BME280;3097;42.692;23.278;2023-02-02T07:20:09;95115.56;;;5.60;66.14
6132;BME280;3097;42.692;23.278;2023-02-02T07:22:38;95125.88;;;5.73;65.41
6132;BME280;3097;42.692;23.278;2023-02-02T07:25:03;95119.00;;;5.74;66.25
6132;BME280;3097;42.692;23.278;2023-02-02T07:27:29;95128.19;;;5.90;65.13
6132;BME280;3097;42.692;23.278;2023-02-02T07:29:54;95135.88;;;5.90;64.31
6132;BME280;3097;42.692;23.278;2023-02-02T07:32:20;95140.84;;;5.98;63.37
6132;BME280;3097;42.692;23.278;2023-02-02T07:34:45;95126.47;;;5.97;63.95
6132;BME280;3097;42.692;23.278;2023-02-02T07:37:11;95137.81;;;6.09;64.57
6132;BME280;3097;42.692;23.278;2023-02-02T07:39:36;95134.19;;;6.31;62.28
6132;BME280;3097;42.692;23.278;2023-02-02T07:42:01;95134.03;;;6.39;63.20
6132;BME280;3097;42.692;23.278;2023-02-02T07:44:28;95129.56;;;6.54;61.54
6132;BME280;3097;42.692;23.278;2023-02-02T07:46:53;95099.75;;;6.40;60.85
6132;BME280;3097;42.692;23.278;2023-02-02T07:52:40;95109.91;;;6.61;63.29
6132;BME280;3097;42.692;23.278;2023-02-02T07:55:06;95107.41;;;6.75;60.44
6132;BME280;3097;42.692;23.278;2023-02-02T07:57:32;95109.22;;;6.81;62.03
6132;BME280;3097;42.692;23.278;2023-02-02T07:59:57;95090.50;;;6.87;60.44
6132;BME280;3097;42.692;23.278;2023-02-02T08:02:23;95098.63;;;6.97;61.61
6132;BME280;3097;42.692;23.278;2023-02-02T08:04:48;95099.69;;;7.29;59.75
6132;BME280;3097;42.692;23.278;2023-02-02T08:07:14;95100.41;;;8.54;58.03
6132;BME280;3097;42.692;23.278;2023-02-02T08:09:44;95086.78;;;10.84;53.77
6132;BME280;3097;42.692;23.278;2023-02-02T08:12:10;95081.50;;;13.18;44.87
6132;BME280;3097;42.692;23.278;2023-02-02T08:14:35;95092.72;;;15.23;42.59
6132;BME280;3097;42.692;23.278;2023-02-02T08:17:00;95070.00;;;16.36;38.86
6132;BME280;3097;42.692;23.278;2023-02-02T08:19:27;95056.44;;;16.81;35.89
6132;BME280;3097;42.692;23.278;2023-02-02T08:21:52;95073.22;;;16.58;35.85
6132;BME280;3097;42.692;23.278;2023-02-02T08:24:18;94992.50;;;15.54;35.42
6132;BME280;3097;42.692;23.278;2023-02-02T08:26:43;95048.66;;;15.06;36.13
6132;BME280;3097;42.692;23.278;2023-02-02T08:29:11;95072.50;;;14.38;38.58
6132;BME280;3097;42.692;23.278;2023-02-02T08:31:42;95070.47;;;14.23;39.49
6132;BME280;3097;42.692;23.278;2023-02-02T08:34:11;95058.44;;;14.34;39.07
6132;BME280;3097;42.692;23.278;2023-02-02T08:36:36;95054.97;;;13.73;38.78
6132;BME280;3097;42.692;23.278;2023-02-02T08:39:08;95064.91;;;13.48;42.81
6132;BME280;3097;42.692;23.278;2023-02-02T08:41:34;95049.56;;;13.13;43.06
6132;BME280;3097;42.692;23.278;2023-02-02T08:44:04;95062.28;;;13.14;44.79
6132;BME280;3097;42.692;23.278;2023-02-02T08:46:30;95029.72;;;12.90;45.27
6132;BME280;3097;42.692;23.278;2023-02-02T08:48:56;95052.50;;;12.76;43.63
6132;BME280;3097;42.692;23.278;2023-02-02T08:51:21;95058.41;;;12.60;45.59
6132;BME280;3097;42.692;23.278;2023-02-02T08:53:47;95026.72;;;12.41;44.27
6132;BME280;3097;42.692;23.278;2023-02-02T08:56:17;95031.53;;;12.50;45.41
6132;BME280;3097;42.692;23.278;2023-02-02T08:58:47;95013.44;;;12.10;44.35
6132;BME280;3097;42.692;23.278;2023-02-02T09:03:44;95029.25;;;12.13;45.13
6132;BME280;3097;42.692;23.278;2023-02-02T09:06:13;95035.19;;;12.14;45.64
6132;BME280;3097;42.692;23.278;2023-02-02T09:08:39;95034.09;;;12.10;46.13
6132;BME280;3097;42.692;23.278;2023-02-02T09:11:07;95014.97;;;12.11;46.76
6132;BME280;3097;42.692;23.278;2023-02-02T09:13:34;95019.13;;;11.88;44.67
6132;BME280;3097;42.692;23.278;2023-02-02T09:16:01;95026.00;;;11.94;46.55
6132;BME280;3097;42.692;23.278;2023-02-02T09:18:27;95033.44;;;12.02;46.50
6132;BME280;3097;42.692;23.278;2023-02-02T09:20:52;95040.13;;;12.03;45.76
6132;BME280;3097;42.692;23.278;2023-02-02T09:23:17;95008.94;;;11.93;46.05
6132;BME280;3097;42.692;23.278;2023-02-02T09:25:43;95045.88;;;12.06;45.79
6132;BME280;3097;42.692;23.278;2023-02-02T09:28:08;95032.63;;;11.90;46.49
6132;BME280;3097;42.692;23.278;2023-02-02T09:30:34;95019.69;;;11.67;46.03
6132;BME280;3097;42.692;23.278;2023-02-02T09:32:59;95009.31;;;11.44;45.66
6132;BME280;3097;42.692;23.278;2023-02-02T09:35:24;95021.00;;;11.35;46.69
6132;BME280;3097;42.692;23.278;2023-02-02T09:37:50;95013.13;;;11.30;46.11
6132;BME280;3097;42.692;23.278;2023-02-02T09:40:17;95006.59;;;11.15;47.60
6132;BME280;3097;42.692;23.278;2023-02-02T09:43:24;95006.88;;;10.96;47.46
6132;BME280;3097;42.692;23.278;2023-02-02T09:51:22;94992.81;;;10.80;47.22
6132;BME280;3097;42.692;23.278;2023-02-02T09:53:58;95001.47;;;10.85;49.29
6132;BME280;3097;42.692;23.278;2023-02-02T09:56:37;95011.69;;;10.92;47.15
6132;BME280;3097;42.692;23.278;2023-02-02T09:59:05;95004.81;;;10.86;47.35
6132;BME280;3097;42.692;23.278;2023-02-02T10:01:34;94997.28;;;10.73;47.25
6132;BME280;3097;42.692;23.278;2023-02-02T10:06:37;94996.97;;;10.81;48.28
6132;BME280;3097;42.692;23.278;2023-02-02T10:09:18;94996.13;;;10.69;47.45
6132;BME280;3097;42.692;23.278;2023-02-02T10:12:05;94989.38;;;10.68;48.09
6132;BME280;3097;42.692;23.278;2023-02-02T10:14:43;94985.97;;;10.74;48.50
6132;BME280;3097;42.692;23.278;2023-02-02T10:20:08;94964.13;;;10.88;47.64
6132;BME280;3097;42.692;23.278;2023-02-02T10:22:38;94982.63;;;10.85;47.31
6132;BME280;3097;42.692;23.278;2023-02-02T10:25:05;94974.19;;;10.78;47.57
6132;BME280;3097;42.692;23.278;2023-02-02T10:27:37;94964.34;;;10.75;48.24
6132;BME280;3097;42.692;23.278;2023-02-02T10:30:14;94956.13;;;10.78;48.72
6132;BME280;3097;42.692;23.278;2023-02-02T10:32:54;94953.69;;;10.83;47.99
6132;BME280;3097;42.692;23.278;2023-02-02T10:35:35;94948.22;;;10.91;48.45
6132;BME280;3097;42.692;23.278;2023-02-02T10:43:41;94934.31;;;10.92;47.46
6132;BME280;3097;42.692;23.278;2023-02-02T10:46:26;94930.28;;;10.96;46.50
6132;BME280;3097;42.692;23.278;2023-02-02T10:52:01;94919.03;;;10.67;47.43
6132;BME280;3097;42.692;23.278;2023-02-02T11:02:41;94895.56;;;10.57;48.07
6132;BME280;3097;42.692;23.278;2023-02-02T11:05:12;94799.00;;;10.00;47.55
6132;BME280;3097;42.692;23.278;2023-02-02T11:08:00;94898.47;;;10.61;47.40
6132;BME280;3097;42.692;23.278;2023-02-02T11:10:26;94889.19;;;10.60;47.48
6132;BME280;3097;42.692;23.278;2023-02-02T11:12:52;94887.34;;;10.48;47.61
6132;BME280;3097;42.692;23.278;2023-02-02T11:15:26;94891.59;;;10.43;47.77
6132;BME280;3097;42.692;23.278;2023-02-02T11:17:53;94888.47;;;10.53;47.23
6132;BME280;3097;42.692;23.278;2023-02-02T11:20:36;94878.25;;;10.34;48.18
6132;BME280;3097;42.692;23.278;2023-02-02T11:23:04;94886.66;;;10.41;47.71
6132;BME280;3097;42.692;23.278;2023-02-02T11:25:38;94868.84;;;10.40;47.46
6132;BME280;3097;42.692;23.278;2023-02-02T11:28:25;94871.94;;;10.30;47.87
6132;BME280;3097;42.692;23.278;2023-02-02T11:30:54;94858.50;;;10.28;47.84
6132;BME280;3097;42.692;23.278;2023-02-02T11:33:33;94858.59;;;10.22;47.88
6132;BME280;3097;42.692;23.278;2023-02-02T11:38:26;94854.66;;;10.19;47.52
6132;BME280;3097;42.692;23.278;2023-02-02T11:40:56;94846.22;;;10.12;47.84
6132;BME280;3097;42.692;23.278;2023-02-02T11:43:46;94863.66;;;10.10;48.04
6132;BME280;3097;42.692;23.278;2023-02-02T11:46:28;94854.16;;;10.10;48.27
6132;BME280;3097;42.692;23.278;2023-02-02T11:49:04;94854.88;;;10.18;48.44
6132;BME280;3097;42.692;23.278;2023-02-02T11:51:32;94825.03;;;10.10;48.31
6132;BME280;3097;42.692;23.278;2023-02-02T11:54:04;94833.53;;;10.10;48.46
6132;BME280;3097;42.692;23.278;2023-02-02T11:56:31;94846.41;;;10.29;48.06
6132;BME280;3097;42.692;23.278;2023-02-02T11:58:59;94844.16;;;10.21;48.07
6132;BME280;3097;42.692;23.278;2023-02-02T12:01:30;94835.44;;;10.33;48.61
6132;BME280;3097;42.692;23.278;2023-02-02T12:04:01;94803.34;;;10.18;47.93
6132;BME280;3097;42.692;23.278;2023-02-02T12:06:36;94801.50;;;10.36;48.35
6132;BME280;3097;42.692;23.278;2023-02-02T12:09:23;94823.13;;;10.47;48.42
6132;BME280;3097;42.692;23.278;2023-02-02T12:12:05;94832.13;;;10.56;48.33
6132;BME280;3097;42.692;23.278;2023-02-02T12:14:38;94834.72;;;10.68;47.61
6132;BME280;3097;42.692;23.278;2023-02-02T12:17:33;94842.91;;;10.65;48.25
6132;BME280;3097;42.692;23.278;2023-02-02T12:34:10;94849.59;;;10.42;45.62
6132;BME280;3097;42.692;23.278;2023-02-02T12:42:13;94841.16;;;10.35;45.27
6132;BME280;3097;42.692;23.278;2023-02-02T12:44:45;94846.44;;;10.40;45.61
6132;BME280;3097;42.692;23.278;2023-02-02T12:50:22;94810.66;;;10.02;45.71
6132;BME280;3097;42.692;23.278;2023-02-02T12:58:51;94835.22;;;10.05;44.56
6132;BME280;3097;42.692;23.278;2023-02-02T13:01:35;94838.97;;;9.91;45.10
6132;BME280;3097;42.692;23.278;2023-02-02T13:07:06;94825.19;;;9.67;45.56
6132;BME280;3097;42.692;23.278;2023-02-02T13:09:44;94828.56;;;9.67;45.70
6132;BME280;3097;42.692;23.278;2023-02-02T13:12:13;94819.06;;;9.50;46.23
6132;BME280;3097;42.692;23.278;2023-02-02T13:14:45;94842.06;;;9.63;46.78
6132;BME280;3097;42.692;23.278;2023-02-02T13:17:40;94844.03;;;9.79;46.36
6132;BME280;3097;42.692;23.278;2023-02-02T13:20:22;94816.69;;;9.66;46.28
6132;BME280;3097;42.692;23.278;2023-02-02T13:22:52;94829.06;;;9.76;46.59
6132;BME280;3097;42.692;23.278;2023-02-02T13:25:26;94825.22;;;9.79;46.61
6132;BME280;3097;42.692;23.278;2023-02-02T13:27:53;94822.97;;;9.70;46.65
6132;BME280;3097;42.692;23.278;2023-02-02T13:30:22;94831.66;;;9.88;46.67
6132;BME280;3097;42.692;23.278;2023-02-02T13:32:51;94827.47;;;9.75;45.95
6132;BME280;3097;42.692;23.278;2023-02-02T13:38:25;94827.59;;;9.80;45.63
6132;BME280;3097;42.692;23.278;2023-02-02T13:40:43;94823.69;;;9.59;45.71
6132;BME280;3097;42.692;23.278;2023-02-02T13:45:56;94803.06;;;9.29;46.20
6132;BME280;3097;42.692;23.278;2023-02-02T13:48:34;94818.47;;;9.48;46.49
6132;BME280;3097;42.692;23.278;2023-02-02T14:01:48;94843.16;;;9.37;52.24
6132;BME280;3097;42.692;23.278;2023-02-02T14:04:23;94834.72;;;9.30;53.05
6132;BME280;3097;42.692;23.278;2023-02-02T14:06:58;94836.84;;;9.33;52.55
6132;BME280;3097;42.692;23.278;2023-02-02T14:09:29;94822.78;;;9.36;52.14
6132;BME280;3097;42.692;23.278;2023-02-02T14:11:59;94818.84;;;9.51;52.75
6132;BME280;3097;42.692;23.278;2023-02-02T14:14:25;94808.75;;;9.50;52.66
6132;BME280;3097;42.692;23.278;2023-02-02T14:24:44;94852.28;;;9.69;52.68
6132;BME280;3097;42.692;23.278;2023-02-02T14:29:59;94875.94;;;9.23;54.89
6132;BME280;3097;42.692;23.278;2023-02-02T14:34:54;94865.97;;;9.09;55.92
6132;BME280;3097;42.692;23.278;2023-02-02T14:39:54;94907.13;;;9.09;58.29
6132;BME280;3097;42.692;23.278;2023-02-02T14:45:39;94959.78;;;8.30;68.60
6132;BME280;3097;42.692;23.278;2023-02-02T14:53:24;94986.84;;;7.09;78.07
6132;BME280;3097;42.692;23.278;2023-02-02T14:56:08;95014.22;;;6.76;80.63
6132;BME280;3097;42.692;23.278;2023-02-02T14:58:44;95040.81;;;6.20;82.62
6132;BME280;3097;42.692;23.278;2023-02-02T15:32:19;95097.47;;;4.62;92.92
6132;BME280;3097;42.692;23.278;2023-02-02T15:34:50;95094.28;;;4.60;92.31
6132;BME280;3097;42.692;23.278;2023-02-02T15:37:23;95066.41;;;4.44;92.42
6132;BME280;3097;42.692;23.278;2023-02-02T15:39:52;95089.66;;;4.49;91.98
6132;BME280;3097;42.692;23.278;2023-02-02T15:42:44;95087.28;;;4.33;91.96
6132;BME280;3097;42.692;23.278;2023-02-02T15:45:42;95104.44;;;4.09;92.37
6132;BME280;3097;42.692;23.278;2023-02-02T15:50:44;95108.66;;;4.02;94.08
6132;BME280;3097;42.692;23.278;2023-02-02T15:53:17;95107.78;;;3.95;93.90
6132;BME280;3097;42.692;23.278;2023-02-02T15:55:43;95118.78;;;3.96;93.58
6132;BME280;3097;42.692;23.278;2023-02-02T15:58:47;95126.94;;;3.91;93.02
6132;BME280;3097;42.692;23.278;2023-02-02T16:01:15;95138.69;;;3.77;93.88
6132;BME280;3097;42.692;23.278;2023-02-02T16:06:20;95115.50;;;3.87;94.61
6132;BME280;3097;42.692;23.278;2023-02-02T16:08:47;95075.31;;;3.74;94.53
6132;BME280;3097;42.692;23.278;2023-02-02T16:11:16;95116.50;;;4.15;94.14